Time;durP1;ratioP1;P1;durP2;ratioP2;P2;SDS_P1;SDS_P2;PMS_P1;PMS_P2;Temp;Humidity;BMP_temperature;BMP_pressure;BME280_temperature;BME280_humidity;BME280_pressure;Samples;Min_cycle;Max_cycle;Signal;HPM_P1;HPM_P2
2024/02/09 00:02:14;;;;;;;20.15;12.15;;;;;;;4.98;100.00;96502.41;15291188;19;20239;-51
2024/02/09 00:07:39;;;;;;;20.45;12.68;;;;;;;5.11;100.00;96504.53;15280458;19;20029;-52
2024/02/09 00:13:12;;;;;;;18.33;11.57;;;;;;;5.27;100.00;96516.13;15290280;19;20081;-55
2024/02/09 00:18:39;;;;;;;16.08;10.40;;;;;;;5.44;100.00;96515.03;15283403;19;20014;-54
2024/02/09 00:24:12;;;;;;;16.80;9.50;;;;;;;5.62;100.00;96525.44;15282601;19;20465;-55
2024/02/09 00:29:40;;;;;;;16.00;7.72;;;;;;;5.82;100.00;96511.59;15284133;19;20037;-51
2024/02/09 00:35:04;;;;;;;15.35;7.43;;;;;;;6.01;100.00;96505.78;15278158;19;20094;-52
2024/02/09 00:40:30;;;;;;;15.43;7.43;;;;;;;6.19;100.00;96507.34;15291046;19;20024;-52
2024/02/09 00:45:58;;;;;;;11.27;6.57;;;;;;;6.35;100.00;96514.38;15279092;19;20094;-55
2024/02/09 00:51:24;;;;;;;11.48;6.72;;;;;;;6.47;100.00;96498.69;15286357;19;20363;-51
2024/02/09 00:56:48;;;;;;;11.73;5.72;;;;;;;6.56;100.00;96480.72;15285920;19;20029;-55
2024/02/09 01:02:17;;;;;;;10.50;5.30;;;;;;;6.69;100.00;96480.91;15286966;19;20029;-53
2024/02/09 01:07:50;;;;;;;10.27;5.28;;;;;;;6.79;100.00;96473.44;14998593;19;5002362;-62
2024/02/09 03:05:55;;;;;;;9.83;3.20;;;;;;;7.60;100.00;96353.78;15291823;19;20028;-61
2024/02/09 03:11:21;;;;;;;13.82;3.70;;;;;;;7.62;100.00;96338.34;15297219;19;20025;-63
2024/02/09 03:16:49;;;;;;;14.68;3.53;;;;;;;7.63;100.00;96329.28;15286842;19;20015;-62
2024/02/09 03:22:14;;;;;;;17.42;4.07;;;;;;;7.64;100.00;96320.22;15292375;19;20022;-59
2024/02/09 03:27:40;;;;;;;12.27;4.07;;;;;;;7.68;100.00;96318.81;15281816;19;20090;-58
2024/02/09 03:33:07;;;;;;;13.77;4.20;;;;;;;7.71;100.00;96305.00;15293420;19;20014;-61
2024/02/09 03:38:35;;;;;;;18.50;4.10;;;;;;;7.77;100.00;96305.25;15277446;19;20037;-64
2024/02/09 03:44:03;;;;;;;13.52;3.95;;;;;;;7.81;100.00;96293.13;15293205;19;20025;-60
2024/02/09 03:49:31;;;;;;;17.45;4.15;;;;;;;7.84;100.00;96285.53;15277227;19;20022;-60
2024/02/09 03:54:57;;;;;;;16.35;3.85;;;;;;;7.88;100.00;96275.22;15285222;19;20029;-60
2024/02/09 04:00:22;;;;;;;15.70;4.00;;;;;;;7.93;100.00;96263.91;15280190;19;20020;-60
2024/02/09 04:05:50;;;;;;;17.50;3.95;;;;;;;7.95;100.00;96269.91;15288668;19;20026;-60
2024/02/09 04:11:17;;;;;;;15.23;4.22;;;;;;;7.98;100.00;96264.97;15287331;19;20090;-58
2024/02/09 04:16:42;;;;;;;18.55;3.65;;;;;;;8.01;100.00;96253.00;15289676;19;20389;-58
2024/02/09 04:22:10;;;;;;;20.63;3.97;;;;;;;8.00;100.00;96244.16;15283809;19;20025;-62
2024/02/09 04:27:37;;;;;;;18.20;3.53;;;;;;;8.00;100.00;96228.06;15279332;19;20022;-62
2024/02/09 04:33:01;;;;;;;18.02;4.35;;;;;;;8.01;100.00;96229.72;15290603;19;20031;-61
2024/02/09 04:38:30;;;;;;;11.45;3.35;;;;;;;8.01;100.00;96216.31;15283957;19;20024;-54
2024/02/09 04:43:55;;;;;;;13.18;3.72;;;;;;;8.04;100.00;96220.44;15290114;19;20393;-62
2024/02/09 04:49:20;;;;;;;11.98;3.33;;;;;;;8.02;100.00;96207.25;15284081;19;20094;-55
2024/02/09 04:54:51;;;;;;;12.30;3.33;;;;;;;8.03;100.00;96208.06;15279742;19;20764;-54
2024/02/09 05:00:17;;;;;;;12.90;3.05;;;;;;;8.02;100.00;96201.06;15283292;19;20039;-58
2024/02/09 05:05:42;;;;;;;14.38;2.95;;;;;;;8.02;100.00;96188.50;15276334;19;20366;-59
2024/02/09 05:11:09;;;;;;;9.57;2.97;;;;;;;8.02;100.00;96188.50;15283535;19;20499;-58
2024/02/09 05:16:35;;;;;;;8.52;2.45;;;;;;;8.05;100.00;96191.81;15278886;19;20014;-57
2024/02/09 05:22:01;;;;;;;7.28;2.13;;;;;;;8.04;100.00;96195.50;15285953;19;20018;-54
2024/02/09 05:27:28;;;;;;;9.20;2.63;;;;;;;8.02;100.00;96183.13;15266602;19;20012;-57
2024/02/09 05:32:53;;;;;;;9.25;2.60;;;;;;;8.00;100.00;96185.16;15283237;19;20035;-56
2024/02/09 05:38:18;;;;;;;10.23;2.50;;;;;;;7.98;100.00;96184.53;15277052;19;20086;-56
2024/02/09 05:43:47;;;;;;;8.60;2.30;;;;;;;7.97;100.00;96185.56;15288126;19;20098;-54
2024/02/09 05:49:11;;;;;;;8.02;1.95;;;;;;;7.97;100.00;96187.44;15274953;19;20082;-61
2024/02/09 05:54:36;;;;;;;6.70;2.25;;;;;;;7.96;100.00;96178.56;15277551;19;20018;-59
2024/02/09 06:00:03;;;;;;;7.00;2.08;;;;;;;7.98;100.00;96179.19;15278323;19;20033;-57
2024/02/09 06:05:28;;;;;;;4.85;1.85;;;;;;;8.00;100.00;96201.25;15285010;19;20025;-58
2024/02/09 06:10:52;;;;;;;6.78;1.70;;;;;;;7.99;100.00;96196.94;15280736;19;20078;-56
2024/02/09 06:16:22;;;;;;;6.00;1.60;;;;;;;7.98;100.00;96200.63;15273043;19;20026;-54
2024/02/09 06:21:46;;;;;;;6.80;1.65;;;;;;;7.98;100.00;96197.94;15281716;19;20110;-57
2024/02/09 06:27:11;;;;;;;5.30;1.60;;;;;;;7.96;100.00;96194.63;15273807;19;20019;-57
2024/02/09 06:32:38;;;;;;;3.42;1.40;;;;;;;7.95;100.00;96190.28;15275874;19;20018;-58
2024/02/09 06:38:03;;;;;;;4.43;1.42;;;;;;;7.96;100.00;96199.19;15279765;19;20024;-60
2024/02/09 06:43:28;;;;;;;4.30;1.60;;;;;;;7.97;100.00;96198.16;15281905;19;20014;-58
2024/02/09 06:48:56;;;;;;;6.70;1.10;;;;;;;7.96;100.00;96213.41;15269432;19;20079;-60
2024/02/09 06:54:21;;;;;;;3.55;1.30;;;;;;;7.97;100.00;96214.25;15285095;19;20040;-56
2024/02/09 06:59:47;;;;;;;3.22;1.17;;;;;;;7.98;100.00;96214.03;15272985;19;20017;-58
2024/02/09 07:05:19;;;;;;;3.83;1.60;;;;;;;7.97;100.00;96212.38;15282335;19;20078;-58
2024/02/09 07:10:44;;;;;;;3.03;1.05;;;;;;;7.98;100.00;96213.22;15286322;19;20015;-60
2024/02/09 07:16:08;;;;;;;2.95;1.17;;;;;;;7.98;100.00;96214.03;15286760;19;20019;-59
2024/02/09 07:21:36;;;;;;;2.75;1.13;;;;;;;8.01;100.00;96216.31;15291650;19;20040;-56
2024/02/09 07:27:00;;;;;;;4.22;1.02;;;;;;;8.04;100.00;96208.91;15284406;19;20503;-59
2024/02/09 07:32:25;;;;;;;2.33;0.95;;;;;;;8.06;100.00;96217.56;15291261;19;20027;-56
2024/02/09 07:37:52;;;;;;;2.63;1.05;;;;;;;8.08;100.00;96212.81;15285832;19;20020;-57
2024/02/09 07:43:17;;;;;;;4.00;0.93;;;;;;;8.12;100.00;96216.78;15294017;19;20027;-56
2024/02/09 07:48:41;;;;;;;1.92;0.75;;;;;;;8.18;100.00;96229.38;15281456;19;20326;-55
2024/02/09 07:54:10;;;;;;;1.98;0.60;;;;;;;8.24;100.00;96222.38;15295005;19;20028;-57
2024/02/09 07:59:35;;;;;;;1.42;0.70;;;;;;;8.29;100.00;96215.38;15284891;19;20011;-58
2024/02/09 08:05:08;;;;;;;2.58;0.50;;;;;;;8.34;100.00;96214.81;15285261;19;20018;-57
2024/02/09 08:10:35;;;;;;;3.88;0.75;;;;;;;8.36;100.00;96214.59;15288958;19;20029;-58
2024/02/09 08:16:00;;;;;;;1.52;0.70;;;;;;;8.38;100.00;96215.22;15281864;19;20097;-56
2024/02/09 08:21:25;;;;;;;2.50;0.80;;;;;;;8.39;100.00;96208.84;15286927;19;20021;-56
2024/02/09 08:26:53;;;;;;;2.42;0.75;;;;;;;8.39;100.00;96215.00;15282160;19;20015;-57
2024/02/09 08:32:17;;;;;;;0.95;0.65;;;;;;;8.43;100.00;96207.38;15287832;19;20024;-56
2024/02/09 08:37:43;;;;;;;1.40;0.52;;;;;;;8.48;100.00;96215.69;15281988;19;20019;-55
2024/02/09 08:43:11;;;;;;;1.15;0.65;;;;;;;8.48;100.00;96204.97;15285988;19;20011;-55
2024/02/09 08:48:36;;;;;;;3.13;0.70;;;;;;;8.47;100.00;96206.78;15278871;19;20081;-59
2024/02/09 08:54:02;;;;;;;2.72;0.50;;;;;;;8.51;100.00;96201.88;15290877;19;20014;-58
2024/02/09 08:59:31;;;;;;;1.00;0.57;;;;;;;8.53;100.00;96189.06;15292151;19;20017;-56
2024/02/09 09:04:57;;;;;;;4.53;0.95;;;;;;;8.61;100.00;96191.56;15286280;19;20018;-58
2024/02/09 09:10:29;;;;;;;0.73;0.68;;;;;;;8.79;100.00;96184.75;15280218;19;20006;-55
2024/02/09 09:15:57;;;;;;;3.17;1.07;;;;;;;8.93;100.00;96191.81;15280162;19;20090;-58
2024/02/09 09:21:21;;;;;;;1.45;0.95;;;;;;;9.03;100.00;96187.88;15282577;19;20014;-55
2024/02/09 09:26:46;;;;;;;1.40;0.75;;;;;;;9.15;100.00;96188.91;15272321;19;20018;-58
2024/02/09 09:32:16;;;;;;;3.15;0.57;;;;;;;9.28;100.00;96190.78;15283136;19;20018;-58
2024/02/09 09:37:41;;;;;;;0.93;0.43;;;;;;;9.43;100.00;96187.84;15278679;19;20014;-56
2024/02/09 09:43:07;;;;;;;0.85;0.40;;;;;;;9.56;100.00;96201.28;15280253;19;20349;-59
2024/02/09 09:48:37;;;;;;;0.32;0.20;;;;;;;9.61;100.00;96210.56;15274558;19;20021;-59
2024/02/09 09:54:02;;;;;;;1.85;0.50;;;;;;;9.66;100.00;96213.44;15287442;19;20027;-56
2024/02/09 09:59:28;;;;;;;0.63;0.22;;;;;;;9.77;100.00;96214.66;15287678;19;20036;-60
2024/02/09 10:04:55;;;;;;;1.55;0.55;;;;;;;9.92;100.00;96211.72;15285799;19;20020;-59
2024/02/09 10:10:28;;;;;;;0.63;0.40;;;;;;;10.00;100.00;96198.03;15281167;19;20082;-58
2024/02/09 10:15:57;;;;;;;0.73;0.60;;;;;;;10.08;100.00;96195.09;15272136;19;20018;-59
2024/02/09 10:21:24;;;;;;;0.80;0.60;;;;;;;10.17;100.00;96193.00;15280659;19;20013;-59
2024/02/09 10:26:50;;;;;;;0.88;0.40;;;;;;;10.25;100.00;96192.75;15275203;19;20010;-59
2024/02/09 10:32:16;;;;;;;1.13;0.60;;;;;;;10.31;100.00;96188.38;15278999;19;20011;-58
2024/02/09 10:37:44;;;;;;;1.15;0.60;;;;;;;10.37;100.00;96190.22;15279681;19;20025;-58
2024/02/09 10:43:12;;;;;;;3.00;0.70;;;;;;;10.42;100.00;96179.66;15296581;19;20586;-59
2024/02/09 10:48:40;;;;;;;1.45;0.77;;;;;;;10.54;100.00;96171.72;15285653;19;20500;-56
2024/02/09 10:54:24;;;;;;;2.20;0.80;;;;;;;10.64;100.00;96155.13;15299181;19;20026;-56
2024/02/09 10:59:50;;;;;;;1.95;0.80;;;;;;;10.70;100.00;96154.22;15289685;19;20044;-59
2024/02/09 11:05:15;;;;;;;2.88;0.95;;;;;;;10.78;100.00;96150.44;15294920;19;20022;-56
2024/02/09 11:10:44;;;;;;;2.70;1.02;;;;;;;10.86;100.00;96131.31;15292511;19;20014;-57
2024/02/09 11:16:09;;;;;;;3.10;1.20;;;;;;;10.96;100.00;96117.38;15286446;19;20014;-56
2024/02/09 11:21:34;;;;;;;3.53;1.10;;;;;;;11.06;100.00;96093.44;15290289;19;20047;-56
2024/02/09 11:27:04;;;;;;;2.55;1.15;;;;;;;11.22;100.00;96085.81;15284202;19;20074;-57
2024/02/09 11:32:31;;;;;;;3.22;1.10;;;;;;;11.30;100.00;96077.44;15290101;19;20010;-55
2024/02/09 11:37:56;;;;;;;2.72;1.20;;;;;;;11.45;100.00;96084.34;15283652;19;20018;-55
2024/02/09 11:43:24;;;;;;;3.60;1.17;;;;;;;11.55;100.00;96090.03;15294894;19;20010;-55
2024/02/09 11:48:49;;;;;;;3.10;1.30;;;;;;;11.62;100.00;96085.38;15282207;19;20014;-55
2024/02/09 11:54:15;;;;;;;4.18;1.50;;;;;;;11.64;100.00;96085.97;15292111;19;20032;-59
2024/02/09 11:59:42;;;;;;;3.13;1.20;;;;;;;11.67;100.00;96076.59;15295162;19;20066;-56
2024/02/09 12:05:08;;;;;;;4.57;1.42;;;;;;;11.73;100.00;96064.91;15289930;19;20031;-55
2024/02/09 12:10:39;;;;;;;3.63;1.40;;;;;;;11.79;100.00;96060.50;15283774;19;20019;-58
2024/02/09 12:16:07;;;;;;;3.08;1.30;;;;;;;11.85;100.00;96062.25;15291109;19;20483;-58
2024/02/09 12:21:32;;;;;;;3.40;1.20;;;;;;;11.92;100.00;96057.63;15297995;19;20463;-59
2024/02/09 12:26:50;;;;;;;3.65;1.45;;;;;;;12.00;100.00;96054.63;15288979;19;20794;-58
2024/02/09 12:32:19;;;;;;;4.13;1.30;;;;;;;12.09;100.00;96043.50;15290797;19;20036;-56
2024/02/09 12:37:44;;;;;;;2.63;1.10;;;;;;;12.21;100.00;96055.16;15283241;19;20070;-54
2024/02/09 12:43:17;;;;;;;2.70;1.10;;;;;;;12.36;100.00;96037.72;15291211;19;20040;-56
2024/02/09 12:48:45;;;;;;;2.50;0.93;;;;;;;12.38;100.00;96012.13;15277302;19;20491;-58
2024/02/09 12:54:10;;;;;;;3.95;1.30;;;;;;;12.43;100.00;96001.47;15290108;19;20018;-58
2024/02/09 12:59:34;;;;;;;2.10;1.08;;;;;;;12.46;100.00;96000.16;15286519;19;20427;-59
2024/02/09 13:05:02;;;;;;;3.15;1.10;;;;;;;12.47;100.00;95993.72;15290124;19;20491;-53
2024/02/09 13:10:34;;;;;;;5.25;1.15;;;;;;;12.49;100.00;95986.22;15287517;19;20089;-58
2024/02/09 13:16:00;;;;;;;3.08;1.10;;;;;;;12.68;100.00;95977.97;15285429;19;20016;-53
2024/02/09 13:21:27;;;;;;;3.33;1.08;;;;;;;12.79;100.00;95950.13;15289609;19;20491;-58
2024/02/09 13:26:52;;;;;;;4.32;1.10;;;;;;;12.84;100.00;95954.84;15284619;19;20022;-55
2024/02/09 13:32:18;;;;;;;1.80;0.90;;;;;;;12.79;100.00;95948.28;15280527;19;20002;-52
2024/02/09 13:37:48;;;;;;;3.50;0.98;;;;;;;12.75;100.00;95924.69;15286722;19;20774;-54
2024/02/09 13:43:13;;;;;;;2.15;1.00;;;;;;;12.75;100.00;95932.78;15289600;19;20014;-55
2024/02/09 13:48:37;;;;;;;2.92;1.20;;;;;;;12.81;100.00;95939.94;15278627;19;20029;-58
2024/02/09 13:54:05;;;;;;;3.00;0.88;;;;;;;12.81;100.00;95931.81;15287206;19;20031;-52
2024/02/09 13:59:30;;;;;;;2.15;0.90;;;;;;;12.81;100.00;95937.22;15288762;19;20117;-53
2024/02/09 14:04:54;;;;;;;1.90;1.00;;;;;;;12.85;100.00;95957.31;15286858;19;20018;-58
2024/02/09 14:10:22;;;;;;;2.80;0.80;;;;;;;12.82;100.00;95928.06;15280006;19;20024;-53
2024/02/09 14:15:50;;;;;;;2.75;1.00;;;;;;;12.83;100.00;95937.81;15295642;19;20043;-58
2024/02/09 14:21:15;;;;;;;2.65;1.13;;;;;;;12.88;100.00;95935.22;15293116;19;20548;-58
2024/02/09 14:26:44;;;;;;;2.20;0.93;;;;;;;12.92;100.00;95924.78;15287765;19;20018;-58
2024/02/09 14:32:09;;;;;;;2.20;0.98;;;;;;;12.91;100.00;95934.75;15285380;19;20390;-60
2024/02/09 14:37:34;;;;;;;5.00;1.00;;;;;;;12.92;100.00;95932.88;15288757;19;20463;-57
2024/02/09 14:43:01;;;;;;;4.82;1.33;;;;;;;12.91;100.00;95929.34;15296697;19;20031;-62
2024/02/09 14:48:26;;;;;;;2.72;1.05;;;;;;;12.87;100.00;95933.59;15287897;19;20015;-56
2024/02/09 14:53:50;;;;;;;2.92;1.17;;;;;;;12.76;100.00;95932.53;15301471;19;20039;-55
2024/02/09 14:59:18;;;;;;;2.03;0.93;;;;;;;12.71;100.00;95928.91;15301230;19;20021;-58
2024/02/09 15:04:43;;;;;;;2.63;1.00;;;;;;;12.62;100.00;95931.97;15297339;19;20010;-52
2024/02/09 15:10:09;;;;;;;3.25;1.30;;;;;;;12.55;100.00;95931.25;15291570;19;20018;-62
2024/02/09 15:15:36;;;;;;;2.38;1.00;;;;;;;12.46;100.00;95928.09;15298247;19;20035;-52
2024/02/09 15:21:01;;;;;;;2.40;1.20;;;;;;;12.42;100.00;95944.97;15293922;19;20018;-52
2024/02/09 15:26:27;;;;;;;2.92;1.30;;;;;;;12.35;100.00;95936.19;15294876;19;20016;-57
2024/02/09 15:31:56;;;;;;;2.70;1.23;;;;;;;12.29;100.00;95940.63;15295104;19;20043;-55
2024/02/09 15:37:21;;;;;;;4.20;1.20;;;;;;;12.21;100.00;95936.41;15292334;19;20465;-57
2024/02/09 15:42:48;;;;;;;2.65;1.13;;;;;;;12.16;100.00;95947.91;15306842;19;20010;-57
2024/02/09 15:48:15;;;;;;;4.55;1.70;;;;;;;12.12;100.00;95954.00;15351190;19;20006;-61
2024/02/09 15:53:40;;;;;;;4.50;1.70;;;;;;;12.06;100.00;95954.91;15311233;19;20018;-61
2024/02/09 15:59:05;;;;;;;3.88;1.50;;;;;;;12.02;100.00;95949.16;15293269;19;20534;-62
2024/02/09 16:04:33;;;;;;;3.10;1.30;;;;;;;11.95;100.00;95943.81;15293198;19;20017;-60
2024/02/09 16:10:04;;;;;;;3.38;1.65;;;;;;;11.88;100.00;95940.41;15281684;19;20062;-61
2024/02/09 16:15:28;;;;;;;3.28;1.30;;;;;;;11.83;100.00;95948.38;15291391;19;20010;-60
2024/02/09 16:20:58;;;;;;;2.80;1.50;;;;;;;11.79;100.00;95947.22;15291869;19;20082;-61
2024/02/09 16:26:22;;;;;;;2.80;1.45;;;;;;;11.76;100.00;95950.34;15288597;19;20043;-61
2024/02/09 16:31:48;;;;;;;4.65;1.90;;;;;;;11.74;100.00;95945.19;15293288;19;20027;-61
2024/02/09 16:37:16;;;;;;;4.15;1.90;;;;;;;11.68;100.00;95933.47;15279411;19;20019;-61
2024/02/09 16:42:41;;;;;;;4.78;1.80;;;;;;;11.63;100.00;95941.41;15284406;19;20027;-60
2024/02/09 16:48:06;;;;;;;4.70;1.95;;;;;;;11.60;100.00;95949.94;15278850;19;20015;-61
2024/02/09 16:53:34;;;;;;;4.90;1.98;;;;;;;11.56;100.00;95956.88;15283350;19;20029;-57
2024/02/09 16:58:58;;;;;;;3.50;1.50;;;;;;;11.50;100.00;95958.59;15287844;19;20014;-57
2024/02/09 17:04:24;;;;;;;3.42;1.25;;;;;;;11.47;100.00;95969.00;15287779;19;20039;-61
2024/02/09 17:09:58;;;;;;;3.78;1.50;;;;;;;11.43;100.00;95970.50;15271650;19;20019;-60
2024/02/09 17:15:24;;;;;;;2.55;1.30;;;;;;;11.38;100.00;95966.63;15281239;19;20018;-60
2024/02/09 17:20:49;;;;;;;3.35;1.52;;;;;;;11.37;100.00;95980.34;15285438;19;20101;-60
2024/02/09 17:26:18;;;;;;;4.13;1.42;;;;;;;11.34;100.00;95981.63;15287415;19;20033;-60
2024/02/09 17:31:43;;;;;;;4.00;1.30;;;;;;;11.32;100.00;95970.22;15286696;19;20015;-59
2024/02/09 17:37:09;;;;;;;2.20;1.15;;;;;;;11.31;100.00;95973.97;15278021;19;20022;-58
2024/02/09 17:42:36;;;;;;;3.67;1.27;;;;;;;11.29;100.00;95973.38;15286899;19;20490;-56
2024/02/09 17:48:01;;;;;;;3.83;1.30;;;;;;;11.28;100.00;95977.13;15275346;19;20034;-56
2024/02/09 17:53:26;;;;;;;3.78;1.48;;;;;;;11.27;100.00;95985.44;15278780;19;20078;-56
2024/02/09 17:58:53;;;;;;;3.80;1.33;;;;;;;11.25;100.00;95974.88;15282406;19;20018;-59
2024/02/09 18:04:19;;;;;;;3.58;1.40;;;;;;;11.23;100.00;95975.09;15286309;19;20033;-58
2024/02/09 18:09:43;;;;;;;2.97;1.27;;;;;;;11.21;100.00;95976.38;15283637;19;20022;-56
2024/02/09 18:15:11;;;;;;;2.80;1.15;;;;;;;11.21;100.00;95987.16;15280211;19;20015;-60
2024/02/09 18:20:37;;;;;;;2.40;1.20;;;;;;;11.19;100.00;95989.25;15275105;19;20471;-61
2024/02/09 18:26:02;;;;;;;3.17;1.30;;;;;;;11.19;100.00;95991.94;15283263;19;20042;-60
2024/02/09 18:31:29;;;;;;;2.55;1.10;;;;;;;11.17;100.00;95989.47;15278788;19;20017;-60
2024/02/09 18:36:56;;;;;;;4.80;1.42;;;;;;;11.17;100.00;95985.97;15273519;19;20531;-60
2024/02/09 18:42:20;;;;;;;2.40;1.20;;;;;;;11.16;100.00;95989.69;15280877;19;20028;-57
2024/02/09 18:47:48;;;;;;;2.53;1.10;;;;;;;11.17;100.00;95984.06;15276832;19;20021;-59
2024/02/09 18:53:13;;;;;;;5.55;1.30;;;;;;;11.17;100.00;95980.56;15248565;19;20713;-57
2024/02/09 18:58:37;;;;;;;4.72;1.38;;;;;;;11.16;100.00;95982.47;15278263;19;20034;-59
2024/02/09 19:04:04;;;;;;;2.47;1.20;;;;;;;11.16;100.00;95979.75;15295854;19;20086;-59
2024/02/09 19:09:31;;;;;;;2.92;1.40;;;;;;;11.15;100.00;95974.56;15282789;19;20014;-58
2024/02/09 19:14:56;;;;;;;2.65;1.30;;;;;;;11.13;100.00;95968.59;15292065;19;20026;-59
2024/02/09 19:20:23;;;;;;;5.00;1.30;;;;;;;11.12;100.00;95973.16;15288786;19;20502;-59
2024/02/09 19:25:49;;;;;;;3.25;1.30;;;;;;;11.10;100.00;95976.09;15288748;19;20033;-58
2024/02/09 19:31:14;;;;;;;4.38;1.35;;;;;;;11.07;100.00;95981.94;15293209;19;20018;-58
2024/02/09 19:36:41;;;;;;;2.30;1.17;;;;;;;11.05;100.00;95978.63;15291609;19;20021;-58
2024/02/09 19:42:06;;;;;;;3.78;1.70;;;;;;;11.03;100.00;95986.09;15294276;19;20074;-58
2024/02/09 19:47:30;;;;;;;2.97;1.20;;;;;;;11.01;100.00;95977.41;15291935;19;20014;-59
2024/02/09 19:52:58;;;;;;;3.70;1.48;;;;;;;11.00;100.00;95986.53;15290302;19;20027;-58
2024/02/09 19:58:24;;;;;;;3.28;1.50;;;;;;;10.98;100.00;95980.59;15284076;19;20031;-54
2024/02/09 20:03:48;;;;;;;3.17;1.25;;;;;;;10.97;100.00;95988.88;15292695;19;20031;-59
2024/02/09 20:09:17;;;;;;;3.75;1.30;;;;;;;10.94;100.00;95976.69;15288786;19;20029;-59
2024/02/09 20:14:41;;;;;;;1.73;1.13;;;;;;;10.93;100.00;95991.19;15279951;19;20018;-55
2024/02/09 20:20:09;;;;;;;2.53;1.23;;;;;;;10.94;100.00;95998.22;15287943;19;20031;-53
2024/02/09 20:25:38;;;;;;;3.20;1.25;;;;;;;10.93;100.00;96002.81;15286835;19;20023;-59
2024/02/09 20:31:05;;;;;;;3.67;1.30;;;;;;;10.93;100.00;96008.19;15286759;19;20010;-59
2024/02/09 20:36:30;;;;;;;2.15;1.33;;;;;;;10.94;100.00;96011.69;15290663;19;20022;-56
2024/02/09 20:41:59;;;;;;;2.88;1.45;;;;;;;10.94;100.00;96014.38;15287321;19;20073;-56
2024/02/09 20:47:29;;;;;;;2.00;1.02;;;;;;;10.92;100.00;96016.47;15274116;19;20029;-58
2024/02/09 20:53:01;;;;;;;1.45;1.10;;;;;;;10.91;100.00;96022.91;15285352;19;20035;-58
2024/02/09 20:58:28;;;;;;;2.78;1.30;;;;;;;10.92;100.00;96028.09;15280637;19;20480;-61
2024/02/09 21:03:55;;;;;;;2.83;1.08;;;;;;;10.93;100.00;96020.81;15283667;19;20018;-59
2024/02/09 21:09:27;;;;;;;2.20;1.13;;;;;;;10.92;100.00;96025.41;15283150;19;20467;-55
2024/02/09 21:14:56;;;;;;;1.67;0.90;;;;;;;10.91;100.00;96025.59;15287006;19;20031;-57
2024/02/09 21:20:21;;;;;;;3.78;1.15;;;;;;;10.89;100.00;96022.31;15284244;19;20018;-58
2024/02/09 21:25:46;;;;;;;1.75;0.90;;;;;;;10.87;100.00;96027.94;15284852;19;20086;-60
2024/02/09 21:31:14;;;;;;;2.65;0.90;;;;;;;10.89;100.00;96028.53;15280843;19;20043;-58
2024/02/09 21:36:39;;;;;;;2.00;1.00;;;;;;;10.90;100.00;96029.34;15285096;19;20025;-59
2024/02/09 21:42:03;;;;;;;1.95;0.95;;;;;;;10.89;100.00;96038.47;15284196;19;20038;-58
2024/02/09 21:47:35;;;;;;;1.42;0.90;;;;;;;10.88;100.00;96026.03;15275031;19;20025;-57
2024/02/09 21:53:00;;;;;;;1.08;0.75;;;;;;;10.88;100.00;96026.03;15284046;19;20017;-58
2024/02/09 21:58:25;;;;;;;3.30;2.20;;;;;;;10.86;100.00;96026.28;15280534;19;20035;-57
2024/02/09 22:03:53;;;;;;;0.98;0.80;;;;;;;10.84;100.00;96025.66;15277620;19;20099;-58
2024/02/09 22:09:18;;;;;;;2.90;1.20;;;;;;;10.85;100.00;96023.81;15275320;19;20063;-58
2024/02/09 22:14:43;;;;;;;0.93;0.70;;;;;;;10.83;100.00;96026.72;15283112;19;20025;-58
2024/02/09 22:20:11;;;;;;;1.77;0.82;;;;;;;10.82;100.00;96026.94;15283565;19;20358;-58
2024/02/09 22:25:37;;;;;;;1.33;0.75;;;;;;;10.75;100.00;96027.00;15279728;19;20756;-57
2024/02/09 22:31:03;;;;;;;1.13;0.88;;;;;;;10.69;100.00;96025.22;15280377;19;20022;-59
2024/02/09 22:36:31;;;;;;;1.25;0.70;;;;;;;10.63;100.00;96025.03;15288102;19;20025;-59
2024/02/09 22:41:58;;;;;;;1.90;0.70;;;;;;;10.57;100.00;96025.09;15294320;19;20015;-60
2024/02/09 22:47:23;;;;;;;0.60;0.60;;;;;;;10.51;100.00;96036.75;15292410;19;20022;-58
2024/02/09 22:52:55;;;;;;;1.67;0.70;;;;;;;10.45;100.00;96041.97;15293301;19;20022;-57
2024/02/09 22:58:20;;;;;;;0.63;0.50;;;;;;;10.41;100.00;96046.13;15294045;19;20025;-57
2024/02/09 23:03:46;;;;;;;0.82;0.60;;;;;;;10.37;100.00;96052.13;15295442;19;20025;-59
2024/02/09 23:09:14;;;;;;;1.88;0.63;;;;;;;10.32;100.00;96050.09;15286272;19;20097;-57
2024/02/09 23:14:39;;;;;;;1.02;0.57;;;;;;;10.29;100.00;96048.69;14777761;19;10002469;-57
2024/02/09 23:20:04;;;;;;;0.93;0.60;;;;;;;10.28;100.00;96048.91;15288983;19;20010;-59
2024/02/09 23:25:33;;;;;;;0.82;0.65;;;;;;;10.23;100.00;96062.16;15290288;19;20028;-58
2024/02/09 23:30:57;;;;;;;0.93;0.50;;;;;;;10.23;100.00;96068.38;15291684;19;20015;-58
2024/02/09 23:36:22;;;;;;;1.08;0.50;;;;;;;10.23;100.00;96067.56;15292199;19;20013;-57
2024/02/09 23:41:49;;;;;;;0.55;0.40;;;;;;;10.21;100.00;96069.63;15287213;19;20029;-58
2024/02/09 23:47:14;;;;;;;0.73;0.50;;;;;;;10.16;100.00;96073.81;15286460;19;20082;-57
2024/02/09 23:52:38;;;;;;;1.50;0.50;;;;;;;10.13;100.00;96071.56;15285488;19;20023;-60
2024/02/09 23:58:06;;;;;;;0.85;0.60;;;;;;;10.09;100.00;96075.72;15288316;19;20018;-57
